Copenhagen Roskilde Airport


Codes: EKRK/RKE
Name: Copenhagen Roskilde Airport
City: Copenhagen
Country: Denmark
Elevation: 146 ft.
Wikipedia:

Photos at Copenhagen Roskilde Airport


   Photos courtesy of SpottingLog. You can add your own sightings and photos by signing up for a free trial today.



No photos found.

Weather at Copenhagen Roskilde Airport


Time (UTC)DescriptionTempratureWindCloud coverageVisibilityPressureHumidity
13-Jun-2024 03:00Broken Clouds7°C7 mph, SW77%10000m1013hPa88%
13-Jun-2024 06:00Light Rain8°C11 mph, SW74%10000m1013hPa86%
13-Jun-2024 09:00Light Rain11°C13 mph, W81%10000m1014hPa72%
13-Jun-2024 12:00Light Rain13°C11 mph, SW93%10000m1014hPa69%
13-Jun-2024 15:00Light Rain13°C11 mph, SW100%10000m1014hPa81%
13-Jun-2024 18:00Light Rain11°C9 mph, SW97%10000m1014hPa89%
13-Jun-2024 21:00Light Rain9°C7 mph, SW98%10000m1015hPa96%
14-Jun-2024 00:00Light Rain10°C9 mph, S99%10000m1014hPa95%
14-Jun-2024 03:00Light Rain10°C9 mph, S100%10000m1013hPa94%
14-Jun-2024 06:00Light Rain11°C7 mph, S100%10000m1013hPa92%
14-Jun-2024 09:00Light Rain12°C11 mph, SE100%10000m1013hPa90%
14-Jun-2024 12:00Light Rain13°C11 mph, SE100%10000m1012hPa84%
14-Jun-2024 15:00Light Rain16°C13 mph, SE99%10000m1011hPa74%
14-Jun-2024 18:00Light Rain14°C9 mph, SE99%10000m1011hPa84%
14-Jun-2024 21:00Overcast Clouds14°C9 mph, SE100%10000m1010hPa80%
15-Jun-2024 00:00Overcast Clouds14°C9 mph, SE100%10000m1009hPa83%
15-Jun-2024 03:00Overcast Clouds13°C11 mph, SE100%10000m1008hPa90%
15-Jun-2024 06:00Overcast Clouds15°C16 mph, SE100%10000m1006hPa86%
15-Jun-2024 09:00Overcast Clouds17°C18 mph, SE100%10000m1005hPa78%
15-Jun-2024 12:00Light Rain15°C18 mph, SE100%6801m1004hPa94%
15-Jun-2024 15:00Moderate Rain14°C18 mph, SW86%10000m1006hPa83%
15-Jun-2024 18:00Scattered Clouds15°C13 mph, SW49%10000m1007hPa80%
15-Jun-2024 21:00Few Clouds10°C7 mph, SW12%10000m1009hPa93%
16-Jun-2024 00:00Scattered Clouds10°C7 mph, SE43%10000m1010hPa95%
16-Jun-2024 03:00Scattered Clouds11°C7 mph, S46%10000m1009hPa92%
16-Jun-2024 06:00Light Rain15°C9 mph, S61%10000m1009hPa85%
16-Jun-2024 09:00Light Rain18°C11 mph, S54%10000m1009hPa67%
16-Jun-2024 12:00Light Rain18°C13 mph, SW71%10000m1010hPa66%
16-Jun-2024 15:00Light Rain16°C11 mph, SW78%10000m1011hPa77%
16-Jun-2024 18:00Light Rain16°C7 mph, S57%10000m1011hPa81%
16-Jun-2024 21:00Clear Sky12°C7 mph, S7%10000m1013hPa91%
17-Jun-2024 00:00Few Clouds11°C7 mph, S22%10000m1013hPa91%
17-Jun-2024 03:00Broken Clouds11°C7 mph, S74%10000m1014hPa90%
17-Jun-2024 06:00Broken Clouds16°C7 mph, S84%10000m1014hPa80%
17-Jun-2024 09:00Light Rain18°C11 mph, S100%10000m1014hPa71%
17-Jun-2024 12:00Light Rain18°C11 mph, S100%10000m1014hPa77%
17-Jun-2024 15:00Light Rain16°C9 mph, S100%10000m1013hPa90%
17-Jun-2024 18:00Overcast Clouds16°C7 mph, SW96%10000m1013hPa89%
17-Jun-2024 21:00Light Rain14°C4 mph, S100%10000m1014hPa98%
18-Jun-2024 00:00Light Rain13°C4 mph, SW93%10000m1014hPa99%